Time;durP1;ratioP1;P1;durP2;ratioP2;P2;SDS_P1;SDS_P2;PMS_P1;PMS_P2;Temp;Humidity;BMP_temperature;BMP_pressure;BME280_temperature;BME280_humidity;BME280_pressure;Samples;Min_cycle;Max_cycle;Signal;HPM_P1;HPM_P2
2022/06/18 00:13:57;;;;;;;7.53;4.57;;;;;;;16.56;57.68;100738.00;31099265;28;98178;-62
2022/06/18 00:28:57;;;;;;;6.40;4.38;;;;;;;16.46;57.89;100732.97;31101549;28;96844;-77
2022/06/18 00:44:01;;;;;;;9.02;4.60;;;;;;;16.16;58.85;100730.47;31111134;28;96965;-78
2022/06/18 00:59:15;;;;;;;10.53;4.50;;;;;;;16.07;59.70;100723.56;31119246;28;96995;-71
2022/06/18 01:14:17;;;;;;;9.43;4.87;;;;;;;15.92;59.88;100720.13;31117125;28;96928;-78
2022/06/18 01:29:18;;;;;;;10.40;5.47;;;;;;;15.99;60.03;100718.31;31114878;28;97196;-75
2022/06/18 01:44:25;;;;;;;6.68;3.88;;;;;;;15.96;60.55;100700.72;31114297;28;96993;-82
2022/06/18 01:59:31;;;;;;;5.67;3.80;;;;;;;15.84;60.85;100687.00;31110809;28;97071;-68
2022/06/18 02:14:34;;;;;;;6.00;4.00;;;;;;;15.88;61.04;100666.78;31113382;28;97112;-65
2022/06/18 02:29:34;;;;;;;10.07;4.03;;;;;;;15.90;61.66;100670.09;31107056;28;96922;-61
2022/06/18 02:44:34;;;;;;;4.53;3.30;;;;;;;15.97;61.60;100666.66;31110589;28;96909;-70
2022/06/18 02:59:35;;;;;;;6.13;3.33;;;;;;;16.00;61.73;100669.75;31106746;28;96671;-78
2022/06/18 03:14:35;;;;;;;6.28;3.40;;;;;;;16.09;62.05;100670.47;31138509;28;96872;-67
2022/06/18 03:29:36;;;;;;;5.10;3.40;;;;;;;16.24;61.86;100676.56;31141221;28;96648;-74
2022/06/18 03:44:37;;;;;;;6.10;3.42;;;;;;;16.56;62.07;100662.69;31102358;28;97317;-77
2022/06/18 03:59:37;;;;;;;4.88;3.20;;;;;;;16.84;61.34;100662.66;31102655;28;97892;-80
2022/06/18 04:14:37;;;;;;;4.03;2.80;;;;;;;17.15;60.92;100655.13;31101048;28;97351;-81
2022/06/18 04:29:38;;;;;;;3.70;3.08;;;;;;;17.52;60.19;100651.09;31098798;28;96984;-82
2022/06/18 04:44:39;;;;;;;4.13;2.73;;;;;;;18.01;59.59;100643.66;31099095;28;97638;-75
2022/06/18 04:59:41;;;;;;;6.45;2.80;;;;;;;18.55;57.44;100633.63;31097908;28;97334;-81
2022/06/18 05:14:42;;;;;;;4.47;2.30;;;;;;;19.00;55.70;100623.91;31096867;28;96754;-70
2022/06/18 05:29:43;;;;;;;4.07;2.10;;;;;;;19.46;54.53;100628.22;31103088;28;96808;-72
2022/06/18 05:44:43;;;;;;;5.70;2.10;;;;;;;20.34;53.19;100606.66;31113400;28;96765;-82
2022/06/18 05:59:43;;;;;;;3.53;2.00;;;;;;;20.79;51.45;100609.09;31113447;28;97414;-66
2022/06/18 06:14:44;;;;;;;3.55;1.80;;;;;;;21.02;50.63;100605.66;31109676;28;96834;-65
2022/06/18 06:29:44;;;;;;;3.92;2.10;;;;;;;21.91;47.54;100607.66;31133180;28;120475;-74
2022/06/18 06:44:44;;;;;;;3.63;2.00;;;;;;;22.10;47.14;100585.81;31103849;28;96745;-70
2022/06/18 06:59:45;;;;;;;4.27;2.00;;;;;;;22.64;46.31;100561.19;31102700;28;97321;-70
2022/06/18 07:14:45;;;;;;;6.07;1.60;;;;;;;23.25;43.92;100547.09;31099315;28;97394;-75
2022/06/18 07:29:45;;;;;;;5.27;2.27;;;;;;;23.93;42.39;100550.63;31098942;28;97142;-62
2022/06/18 07:44:46;;;;;;;3.90;1.35;;;;;;;24.43;39.51;100528.97;31097101;28;101238;-68
2022/06/18 07:59:46;;;;;;;;;;;;;;;25.22;38.04;100524.88;31095133;28;97271;-70
2022/06/18 08:14:46;;;;;;;2.67;1.20;;;;;;;25.63;35.61;100522.47;31085496;28;96921;-68
2022/06/18 08:29:48;;;;;;;5.05;1.30;;;;;;;26.47;33.11;100502.69;31068263;28;98920;-76
2022/06/18 08:44:48;;;;;;;1.87;0.80;;;;;;;26.68;30.22;100482.50;31099172;27;97079;-62
2022/06/18 09:00:04;;;;;;;1.70;0.80;;;;;;;27.12;28.86;100459.31;31095796;28;97602;-69
2022/06/18 09:15:08;;;;;;;3.93;0.93;;;;;;;27.65;28.39;100444.47;31112551;28;96759;-69
2022/06/18 09:30:14;;;;;;;2.10;0.70;;;;;;;27.89;26.23;100446.59;31110816;28;96777;-69
2022/06/18 09:45:22;;;;;;;2.50;1.00;;;;;;;28.08;26.22;100433.94;31110766;28;96794;-64
2022/06/18 10:00:28;;;;;;;3.03;0.97;;;;;;;28.92;25.49;100402.94;31109441;28;96812;-61
2022/06/18 10:15:29;;;;;;;1.30;0.87;;;;;;;29.86;24.33;100387.13;31105884;28;96887;-62
2022/06/18 10:30:57;;;;;;;3.42;1.10;;;;;;;30.31;24.45;100379.34;31105802;28;96876;-60
2022/06/18 10:46:21;;;;;;;4.33;0.97;;;;;;;30.12;24.14;100345.59;31104243;28;96731;-61
2022/06/18 11:01:34;;;;;;;3.03;0.60;;;;;;;30.02;24.56;100333.63;31099539;28;97302;-70
2022/06/18 11:16:42;;;;;;;2.27;0.90;;;;;;;30.10;24.53;100323.06;31101829;28;96878;-74
2022/06/18 11:31:47;;;;;;;1.53;0.90;;;;;;;30.15;24.70;100320.25;31099894;28;97381;-74
2022/06/18 11:46:55;;;;;;;7.23;1.07;;;;;;;29.60;25.28;100285.06;31097933;28;96744;-77
2022/06/18 12:02:03;;;;;;;2.40;0.97;;;;;;;30.06;24.69;100262.44;31097320;28;97476;-66
2022/06/18 12:17:15;;;;;;;2.40;1.07;;;;;;;30.25;25.14;100239.59;31095556;28;97528;-60
2022/06/18 12:32:28;;;;;;;1.33;1.00;;;;;;;30.26;24.97;100233.00;31095354;28;97346;-64
2022/06/18 12:47:40;;;;;;;1.63;0.80;;;;;;;30.62;24.29;100233.19;31091542;28;97499;-73
2022/06/18 13:03:08;;;;;;;1.07;0.80;;;;;;;30.74;24.01;100209.88;30969324;28;96702;-60
2022/06/18 13:18:18;;;;;;;3.23;0.87;;;;;;;30.81;24.06;100197.34;30968076;28;96777;-61
2022/06/18 13:33:46;;;;;;;2.17;1.20;;;;;;;30.75;24.40;100164.78;30964827;28;96886;-61
2022/06/18 13:49:04;;;;;;;3.17;1.40;;;;;;;30.66;24.61;100150.91;30985909;28;97166;-61
2022/06/18 14:04:18;;;;;;;3.03;1.13;;;;;;;30.64;25.89;100134.72;31164388;28;96856;-62
2022/06/18 14:19:18;;;;;;;2.20;1.40;;;;;;;30.34;25.81;100117.69;31096378;28;97632;-61
2022/06/18 14:35:07;;;;;;;2.78;1.40;;;;;;;30.05;26.50;100105.06;31097204;28;96998;-63
2022/06/18 14:50:16;;;;;;;3.30;1.10;;;;;;;30.16;26.76;100088.41;31093814;28;96929;-60
2022/06/18 15:05:22;;;;;;;2.00;1.17;;;;;;;30.24;27.71;100062.13;31095023;28;97304;-61
2022/06/18 15:35:47;;;;;;;6.20;1.30;;;;;;;30.31;27.60;100035.88;31143350;28;97401;-63
2022/06/18 15:50:48;;;;;;;2.07;1.30;;;;;;;30.47;27.77;100027.34;31140463;28;96967;-61
2022/06/18 16:05:52;;;;;;;3.72;1.48;;;;;;;30.26;27.38;100035.19;31137170;28;97369;-63
2022/06/18 16:21:11;;;;;;;2.53;1.20;;;;;;;30.20;28.15;100015.25;31066861;28;97181;-67
2022/06/18 16:36:13;;;;;;;5.57;1.70;;;;;;;30.22;28.55;100010.25;31184473;28;97415;-65
2022/06/18 16:51:14;;;;;;;3.47;1.40;;;;;;;30.01;29.02;99999.69;31206172;28;97533;-66
2022/06/18 17:06:15;;;;;;;3.53;1.40;;;;;;;29.83;29.51;99998.63;31206035;27;97298;-61
2022/06/18 17:21:15;;;;;;;5.65;1.60;;;;;;;29.65;30.77;100008.59;31216927;27;97615;-63
2022/06/18 17:36:23;;;;;;;3.50;1.55;;;;;;;29.42;30.96;99987.63;31234779;27;97015;-71
2022/06/18 17:51:24;;;;;;;4.83;1.77;;;;;;;29.00;32.59;99977.28;31108168;27;97324;-68
2022/06/18 18:06:26;;;;;;;4.37;1.67;;;;;;;28.45;34.06;99971.53;31101600;28;98081;-61
2022/06/18 18:21:26;;;;;;;3.03;1.50;;;;;;;27.93;33.96;99974.91;31097521;28;97111;-62
2022/06/18 18:36:26;;;;;;;3.50;1.98;;;;;;;27.47;35.42;99969.91;31100542;28;97276;-66
2022/06/18 18:51:27;;;;;;;4.97;1.77;;;;;;;26.96;35.91;99974.69;31098909;28;97198;-61
2022/06/18 19:06:27;;;;;;;6.88;2.10;;;;;;;26.53;36.77;99985.31;31097343;28;96833;-63
2022/06/18 19:21:28;;;;;;;3.90;1.67;;;;;;;26.09;37.03;99991.56;31095743;28;98770;-68
2022/06/18 19:36:30;;;;;;;8.30;1.98;;;;;;;25.67;37.78;99994.38;31092361;28;102366;-63
2022/06/18 19:51:33;;;;;;;4.37;1.63;;;;;;;25.09;38.38;100000.09;31090516;28;97439;-73
2022/06/18 20:06:34;;;;;;;5.33;1.93;;;;;;;24.60;40.17;99995.09;31093375;28;97415;-74
2022/06/18 20:21:34;;;;;;;5.30;1.90;;;;;;;24.20;40.50;99997.41;31091176;28;97547;-66
2022/06/18 20:36:35;;;;;;;3.97;2.03;;;;;;;23.99;41.37;99996.50;31089456;28;97211;-63
2022/06/18 20:51:37;;;;;;;;;;;;;;;23.63;42.11;99993.53;31088246;28;97639;-74
2022/06/18 21:06:37;;;;;;;3.87;2.00;;;;;;;23.21;43.13;99991.59;31108524;28;97267;-71
2022/06/18 21:21:43;;;;;;;4.65;2.00;;;;;;;23.19;43.62;99994.56;31108697;28;97367;-74
2022/06/18 21:37:02;;;;;;;10.90;2.23;;;;;;;22.81;44.90;99985.50;31108230;28;97098;-69
2022/06/18 21:52:04;;;;;;;7.23;2.50;;;;;;;22.36;45.34;99983.94;31106679;28;97346;-69
2022/06/18 22:07:05;;;;;;;12.67;3.80;;;;;;;22.20;45.91;99988.31;31104553;28;96768;-76
2022/06/18 22:22:05;;;;;;;6.23;2.40;;;;;;;22.03;46.26;99981.06;31104077;28;97285;-69
2022/06/18 22:37:06;;;;;;;4.67;3.17;;;;;;;21.99;46.13;99977.22;31036358;28;96896;-76
2022/06/18 22:52:09;;;;;;;6.95;2.25;;;;;;;21.79;46.67;99962.31;30989204;28;96628;-77
2022/06/18 23:07:12;;;;;;;5.20;2.37;;;;;;;22.12;46.43;99957.03;30986105;28;97431;-79
2022/06/18 23:22:13;;;;;;;9.50;2.73;;;;;;;21.84;47.15;99969.69;30984098;28;96655;-78
2022/06/18 23:37:18;;;;;;;4.15;2.63;;;;;;;21.30;48.96;99965.63;30984296;28;96772;-77
2022/06/18 23:52:19;;;;;;;3.80;2.60;;;;;;;20.99;50.42;99960.78;30981752;28;96537;-78
